Little's Farm

CA-0442 · Ontario, Canadá

História da METAR CA-0442 · Little's Farm

Abaixo você vê METARs dos últimos dias. Selecione um ano para navegar pelos METARs mais antigos, a partir do ano 2007.

19 de maio de 2024

Hora Código Clima Temp. Visibilidade Tecto Vento METAR/SPECI
06:00
M
13 °C 3 mi - 330° 330° 2 kt METAR CYYZ 191000Z 33002KT 3SM BR SKC 13/13 A2996 RMK SLP147
05:00
V
13 °C 5 mi - Var Var 2 kt METAR CYYZ 190900Z VRB02KT 5SM BR SKC 13/13 A2995 RMK SLP144
04:00
V
13 °C 6 mi - 330° 330° 2 kt METAR CYYZ 190800Z 33002KT 6SM BR FEW180 13/13 A2994 RMK AS1 SLP142
03:00
V
14 °C 6 mi - 310° 310° 3 kt METAR CYYZ 190700Z 31003KT 6SM BR FEW180 14/14 A2994 RMK AS1 SLP140
02:00
V
14 °C 6 mi - 300° 300° 3 kt METAR CYYZ 190600Z 30003KT 6SM BR FEW180 14/14 A2995 RMK AS1 SLP143
01:00
V
14 °C 6 mi - 300° 300° 2 kt METAR CYYZ 190500Z 30002KT 6SM MIFG SKC 14/14 A2995 RMK FG1 SLP144
00:00
V
15 °C 10 mi - 360° 360° 0 kt METAR CYYZ 190400Z 00000KT 10SM FEW200 15/15 A2995 RMK CI1 SLP144

18 de maio de 2024

Hora Código Clima Temp. Visibilidade Tecto Vento METAR/SPECI
23:00
V
15 °C 15 mi - 150° 150° 2 kt METAR CYYZ 190300Z 15002KT 15SM SKC 15/15 A2994 RMK SLP142
22:00
V
14 °C 15 mi - 360° 360° 0 kt METAR CYYZ 190200Z 00000KT 15SM SKC 14/14 A2994 RMK SLP142
21:00
V
15 °C 15 mi - 150° 150° 5 kt METAR CYYZ 190100Z 15005KT 15SM SKC 15/15 A2993 RMK SLP136 DENSITY ALT 800FT
20:00
V
18 °C 15 mi - 140° 140° 8 kt METAR CYYZ 190000Z 14008KT 15SM SKC 18/15 A2993 RMK SLP136 DENSITY ALT 1100FT
19:00
V
19 °C 15 mi - 140° 140° 7 kt METAR CYYZ 182300Z 14007KT 15SM FEW025 19/15 A2993 RMK CU1 CU TR SLP136 DENSITY ALT 1300FT
18:00
V
20 °C 15 mi - 150° 150° 7 kt METAR CYYZ 182200Z 15007KT 15SM FEW024 20/16 A2992 RMK CU1 SLP135 DENSITY ALT 1400FT
17:00
V
21 °C 15 mi - 120° 120° 8 kt METAR CYYZ 182100Z 12008KT 100V180 15SM SCT024 21/16 A2993 RMK CU3 SLP135 DENSITY ALT 1400FT
16:00
V
20 °C 15 mi 3.500 ft 150° 150° 7 kt METAR CYYZ 182000Z 15007KT 100V160 15SM FEW018 BKN035 20/17 A2993 RMK CF1SC6 SLP138 DENSITY ALT 1300FT
15:00
V
19 °C 15 mi 3.800 ft 150° 150° 8 kt METAR CYYZ 181900Z 15008KT 15SM FEW017 BKN038 19/16 A2993 RMK CF1SC6 SLP137 DENSITY ALT 1200FT
14:00
V
20 °C 15 mi 4.100 ft 120° 120° 7 kt METAR CYYZ 181800Z 12007KT 110V190 15SM FEW030 BKN041 20/16 A2994 RMK CF1SC6 SLP141 DENSITY ALT 1300FT
13:00
M
18 °C 15 mi 3.000 ft 150° 150° 8 kt METAR CYYZ 181700Z 15008KT 130V190 15SM BKN030 18/16 A2995 RMK SC7 SLP143 DENSITY ALT 1100FT
12:00
M
19 °C 15 mi 3.000 ft 160° 160° 7 kt METAR CYYZ 181600Z 16007KT 15SM BKN030 19/16 A2993 RMK SC7 SLP139 DENSITY ALT 1200FT
11:00
M
19 °C 15 mi 2.500 ft 140° 140° 6 kt METAR CYYZ 181500Z 14006KT 080V180 15SM BKN025 19/16 A2993 RMK SC7 SLP138 DENSITY ALT 1200FT
10:00
M
19 °C 15 mi 2.700 ft 080° 080° 3 kt METAR CYYZ 181400Z 08003KT 020V120 15SM FEW017 BKN027 19/15 A2994 RMK CF2SC5 SLP141 DENSITY ALT 1100FT
09:00
M
17 °C 15 mi 1.500 ft 040° 040° 5 kt METAR CYYZ 181300Z 04005KT 020V100 15SM BKN015 17/16 A2993 RMK SC7 SLP137 DENSITY ALT 1000FT
08:00
M
16 °C 6 mi 1.100 ft 050° 050° 5 kt METAR CYYZ 181200Z 05005KT 6SM BR SCT006 BKN011 OVC025 16/16 A2992 RMK SF3SC3SC2 SLP133 DENSITY ALT 900FT
07:38
M
16 °C 6 mi 1.000 ft 040° 040° 5 kt METAR CYYZ 181138Z 04005KT 6SM BR SCT005 OVC010 16/16 A2992 RMK SF4SC4 SLP133 DENSITY ALT 900FT
07:00
L
16 °C 5 mi 400 ft 060° 060° 5 kt METAR CYYZ 181100Z 06005KT 5SM BR OVC004 16/16 A2991 RMK ST8 SLP131 DENSITY ALT 800FT
06:00
L
15 °C 3 mi 400 ft 050° 050° 8 kt METAR CYYZ 181000Z 05008KT 3SM BR OVC004 15/15 A2990 RMK ST8 CIG VRB 3-5 SLP126 DENSITY ALT 800FT
05:52
L
15 °C 3 mi 400 ft 040° 040° 6 kt METAR CYYZ 180952Z 04006KT 3SM BR OVC004 15/15 A2989 RMK ST8 SLP125 DENSITY ALT 800FT
05:13
I
15 °C 3 mi 500 ft 020° 020° 5 kt METAR CYYZ 180913Z 02005KT 3SM BR OVC005 15/15 A2988 RMK ST8 SLP120 DENSITY ALT 800FT
05:00
L
15 °C 3 mi 400 ft 020° 020° 6 kt METAR CYYZ 180900Z 02006KT 3SM -DZ BR OVC004 15/15 A2987 RMK ST8 CIG VRB 3-5 SLP118 DENSITY ALT 800FT
04:00
L
15 °C 2 mi 300 ft 020° 020° 6 kt METAR CYYZ 180800Z 02006KT 2SM -DZ BR OVC003 15/15 A2987 RMK ST8 CIG VRB 2-4 SLP116 DENSITY ALT 900FT
03:46
L
15 °C 3 mi 300 ft 030° 030° 5 kt METAR CYYZ 180746Z 03005KT 3SM BR OVC003 15/15 A2987 RMK ST8 SLP117 DENSITY ALT 800FT
03:00
I
16 °C 4 mi 600 ft 040° 040° 6 kt METAR CYYZ 180700Z 04006KT 4SM BR OVC006 16/16 A2986 RMK ST8 SLP113 DENSITY ALT 900FT
02:00
I
15 °C 5 mi 800 ft 070° 070° 5 kt METAR CYYZ 180600Z 07005KT 5SM BR OVC008 15/15 A2984 RMK ST8 SLP108 DENSITY ALT 900FT
01:23
I
16 °C 10 mi 900 ft 070° 070° 7 kt METAR CYYZ 180523Z 07007KT 10SM OVC009 16/16 A2985 RMK ST8 SLP109 DENSITY ALT 900FT
01:14
M
16 °C 10 mi 1.000 ft 080° 080° 5 kt METAR CYYZ 180514Z 08005KT 10SM BKN010 OVC040 16/16 A2985 RMK ST6SC2 SLP110 DENSITY ALT 900FT
01:00
V
15 °C 10 mi 4.000 ft 060° 060° 4 kt METAR CYYZ 180500Z 06004KT 10SM SCT012 OVC040 15/15 A2986 RMK SC4SC4 SLP112 DENSITY ALT 900FT
00:00
V
16 °C 15 mi 7.500 ft 080° 080° 3 kt METAR CYYZ 180400Z 08003KT 15SM SCT042 BKN075 16/16 A2987 RMK SC4AC3 SLP116 DENSITY ALT 900FT

17 de maio de 2024

Hora Código Clima Temp. Visibilidade Tecto Vento METAR/SPECI
23:00
V
15 °C 15 mi 5.500 ft 030° 030° 3 kt METAR CYYZ 180300Z 03003KT 15SM FEW008 BKN055 BKN100 15/15 A2987 RMK SF1SC5AC2 SF TR SLP119 DENSITY ALT 800FT
22:43
V
15 °C 15 mi 5.300 ft 040° 040° 3 kt METAR CYYZ 180243Z 04003KT 15SM FEW008 SCT035 BKN053 BKN100 15/15 A2988 RMK SF1SC2SC2AC2 SLP120 DENSITY ALT 800FT
22:00
V
15 °C 5 mi 7.200 ft 060° 060° 3 kt METAR CYYZ 180200Z 06003KT 5SM -RA BR FEW003 SCT028 OVC072 15/15 A2988 RMK SF2SC2AC4 SLP120 DENSITY ALT 800FT
21:26
V
15 °C 5 mi 4.500 ft 100° 100° 4 kt METAR CYYZ 180126Z 10004KT 5SM -RA BR FEW003 SCT012 BKN045 OVC075 15/15 A2987 RMK SF2SC2SC2AC2 SLP119 DENSITY ALT 800FT
21:00
M
15 °C 3 mi 1.200 ft 130° 130° 5 kt METAR CYYZ 180100Z 13005KT 3SM -RA BR SCT003 BKN012 OVC045 15/15 A2987 RMK SC4SC2SC2 SLP118 DENSITY ALT 800FT
20:56
M
15 °C 3 mi 4.500 ft 130° 130° 4 kt METAR CYYZ 180056Z 13004KT 3SM -RA BR SCT003 BKN045 15/15 A2987 RMK SC4SC3 SLP119 DENSITY ALT 800FT
20:00
V
16 °C 6 mi 4.200 ft 160° 160° 5 kt METAR CYYZ 180000Z 16005KT 6SM -RA BR FEW015 BKN042 OVC075 16/16 A2987 RMK SF1SC5AC3 SF TR SLP119 DENSITY ALT 900FT
19:31
V
17 °C 12 mi 5.500 ft 180° 180° 5 kt METAR CYYZ 172331Z 18005KT 160V250 12SM -RA FEW010 BKN055 BKN075 17/16 A2986 RMK SF1SC4AC2 VIS 6 SW SLP115 DENSITY ALT 1000FT
19:00
V
17 °C 15 mi 7.500 ft 160° 160° 3 kt METAR CYYZ 172300Z 16003KT 140V230 15SM FEW010 FEW025 BKN075 17/16 A2985 RMK SF1SC2AC5 SF TR SLP111 DENSITY ALT 1100FT
18:00
V
17 °C 15 mi 9.000 ft 190° 190° 4 kt METAR CYYZ 172200Z 19004KT 15SM FEW010 SCT030 BKN090 BKN140 17/16 A2984 RMK SF1SC2AC2AC2 SLP109 DENSITY ALT 1100FT
17:00
V
18 °C 10 mi 7.500 ft 100° 100° 9 - 16 kt METAR CYYZ 172100Z 10009G16KT 10SM FEW015 BKN075 BKN140 18/18 A2982 RMK SF1AC4AC2 SLP101 DENSITY ALT 1200FT
16:00
V
18 °C 10 mi 6.000 ft 090° 090° 5 kt METAR CYYZ 172000Z 09005KT 10SM -RA FEW015 BKN060 BKN080 18/18 A2984 RMK SF1NS4NS2 SLP108 DENSITY ALT 1100FT
15:00
V
18 °C 6 mi 6.100 ft 130° 130° 6 kt METAR CYYZ 171900Z 13006KT 100V170 6SM -RA BR FEW024 OVC061 18/17 A2988 RMK CF1NS7 SLP121 DENSITY ALT 1100FT
14:00
V
18 °C 12 mi 3.800 ft Var Var 2 kt METAR CYYZ 171800Z VRB02KT 12SM -RA BKN038 BKN075 OVC100 18/15 A2987 RMK SC5AC2AC1 SLP119 DENSITY ALT 1200FT
13:41
V
19 °C 15 mi 8.500 ft 180° 180° 3 kt METAR CYYZ 171741Z 18003KT 130V230 15SM -RA SCT038 BKN085 OVC100 19/15 A2988 RMK SC3AC2AC3 SLP120 DENSITY ALT 1200FT
13:00
V
19 °C 15 mi 10.000 ft 210° 210° 5 kt METAR CYYZ 171700Z 21005KT 120V220 15SM SCT075 OVC100 19/14 A2988 RMK AC3AS5 SLP121 DENSITY ALT 1200FT
12:00
V
18 °C 15 mi 15.000 ft 130° 130° 5 kt METAR CYYZ 171600Z 13005KT 110V170 15SM FEW080 OVC150 18/14 A2988 RMK AC2AS6 SLP121 DENSITY ALT 1200FT
11:00
V
18 °C 15 mi 16.000 ft 220° 220° 3 kt METAR CYYZ 171500Z 22003KT 140V250 15SM FEW080 OVC160 18/15 A2988 RMK AC2AS6 SLP121 DENSITY ALT 1200FT
10:00
V
18 °C 15 mi 24.000 ft 160° 160° 5 kt METAR CYYZ 171400Z 16005KT 120V200 15SM SCT150 OVC240 18/15 A2987 RMK AC3CS5 SLP118 DENSITY ALT 1200FT
09:00
V
18 °C 15 mi 24.000 ft 120° 120° 4 kt METAR CYYZ 171300Z 12004KT 100V160 15SM FEW120 OVC240 18/15 A2987 RMK AC1CS7 SLP116 DENSITY ALT 1100FT
08:00
V
17 °C 15 mi 20.000 ft Var Var 2 kt METAR CYYZ 171200Z VRB02KT 15SM FEW040 BKN200 17/15 A2986 RMK SC1CI6 SLP114 DENSITY ALT 1000FT
07:00
V
16 °C 15 mi 11.000 ft 110° 110° 4 kt METAR CYYZ 171100Z 11004KT 15SM SCT041 BKN110 BKN210 16/15 A2985 RMK SC3AC2CI2 SLP110 DENSITY ALT 900FT
06:00
V
15 °C 15 mi 11.000 ft 100° 100° 3 kt METAR CYYZ 171000Z 10003KT 15SM SCT041 BKN110 BKN190 15/14 A2984 RMK SC3AC2AC1 SLP108 DENSITY ALT 800FT
05:00
V
16 °C 15 mi 22.000 ft 080° 080° 5 kt METAR CYYZ 170900Z 08005KT 15SM FEW110 BKN220 16/14 A2984 RMK AC1CI6 SLP107 DENSITY ALT 900FT
04:00
V
16 °C 15 mi 24.000 ft 070° 070° 4 kt METAR CYYZ 170800Z 07004KT 15SM FEW110 BKN240 16/14 A2985 RMK AC1CI4 SLP109 DENSITY ALT 900FT
03:00
V
15 °C 15 mi 25.000 ft 060° 060° 3 kt METAR CYYZ 170700Z 06003KT 15SM BKN250 15/14 A2985 RMK CI5 SLP109 DENSITY ALT 900FT
02:00
V
16 °C 15 mi - 010° 010° 3 kt METAR CYYZ 170600Z 01003KT 15SM SCT250 16/14 A2984 RMK CI4 SLP108 DENSITY ALT 900FT
Relatar uma mudança